createdAt,value
2023-04-21T08:15:05.867Z,9.27
2023-04-21T08:29:51.559Z,9.20
2023-04-21T08:32:26.433Z,11.70
2023-04-21T08:34:54.648Z,8.90
2023-04-21T08:37:22.973Z,8.75
2023-04-21T08:39:53.693Z,9.02
2023-04-21T08:42:21.251Z,11.70
2023-04-21T08:44:48.967Z,10.48
2023-04-21T08:47:16.371Z,11.57
2023-04-21T08:49:45.294Z,10.20
2023-04-21T08:52:14.500Z,9.88
2023-04-21T08:54:41.980Z,10.05
2023-04-21T08:57:15.222Z,13.18
2023-04-21T08:59:44.960Z,9.37
2023-04-21T09:02:15.573Z,11.63
2023-04-21T09:04:52.048Z,13.33
2023-04-21T09:07:34.328Z,11.93
2023-04-21T09:10:02.027Z,9.48
2023-04-21T09:12:30.051Z,12.15
2023-04-21T09:14:58.270Z,13.07
2023-04-21T09:17:32.685Z,10.40
2023-04-21T09:20:14.412Z,11.60
2023-04-21T09:22:42.324Z,10.63
2023-04-21T09:25:10.083Z,11.57
2023-04-21T09:27:37.952Z,11.15
2023-04-21T09:30:07.287Z,13.13
2023-04-21T09:32:41.773Z,11.60
2023-04-21T09:35:12.457Z,9.50
2023-04-21T09:37:43.559Z,11.23
2023-04-21T09:40:15.084Z,11.50
2023-04-21T09:42:44.691Z,8.13
2023-04-21T09:47:51.372Z,13.95
2023-04-21T09:50:41.757Z,11.65
2023-04-21T09:53:15.686Z,11.82
2023-04-21T09:55:43.504Z,9.77
2023-04-21T09:58:12.476Z,9.85
2023-04-21T10:00:41.004Z,8.15
2023-04-21T10:03:11.575Z,9.88
2023-04-21T10:05:42.063Z,7.87
2023-04-21T10:08:11.954Z,11.45
2023-04-21T10:10:39.846Z,9.65
2023-04-21T10:13:07.640Z,11.05
2023-04-21T10:15:40.160Z,8.30
2023-04-21T10:18:19.816Z,10.85
2023-04-21T10:21:09.715Z,9.13
2023-04-21T10:23:43.602Z,11.35
2023-04-21T10:26:34.846Z,9.90
2023-04-21T10:29:04.462Z,10.37
2023-04-21T10:31:36.710Z,9.07
2023-04-21T10:34:09.828Z,8.38
2023-04-21T10:36:51.794Z,8.98
2023-04-21T10:39:25.389Z,12.25
2023-04-21T10:41:58.198Z,10.00
2023-04-21T10:44:28.828Z,12.40
2023-04-21T10:46:58.964Z,9.13
2023-04-21T10:49:32.706Z,10.43
2023-04-21T10:52:00.736Z,10.93
2023-04-21T10:54:31.757Z,10.15
2023-04-21T10:56:59.561Z,10.30
2023-04-21T10:59:27.316Z,11.10
2023-04-21T11:01:54.898Z,9.98
2023-04-21T11:04:23.470Z,9.97
2023-04-21T11:07:08.104Z,10.32
2023-04-21T11:09:36.710Z,11.40
2023-04-21T11:12:07.504Z,10.40
2023-04-21T11:14:37.183Z,9.63
2023-04-21T11:17:06.387Z,9.57
2023-04-21T11:19:33.839Z,8.48
2023-04-21T11:22:01.499Z,10.25
2023-04-21T11:24:29.100Z,7.12
2023-04-21T11:26:56.847Z,10.20
2023-04-21T11:29:24.500Z,9.05
2023-04-21T11:31:53.819Z,10.88
2023-04-21T11:34:22.136Z,8.85
2023-04-21T11:36:49.632Z,11.95
2023-04-21T11:39:21.830Z,11.82
2023-04-21T11:41:50.856Z,11.43
2023-04-21T11:44:32.113Z,9.73
2023-04-21T11:46:59.766Z,9.48
2023-04-21T11:49:31.965Z,11.15
2023-04-21T11:51:59.644Z,11.12
2023-04-21T11:54:29.362Z,9.95
2023-04-21T11:56:56.832Z,10.80
2023-04-21T11:59:26.343Z,11.57
2023-04-21T12:01:55.109Z,8.50
2023-04-21T12:04:24.587Z,9.65
2023-04-21T12:06:59.306Z,9.18
2023-04-21T12:09:27.612Z,12.20
2023-04-21T12:12:01.782Z,7.95
2023-04-21T12:14:29.471Z,7.87
2023-04-21T12:16:58.425Z,9.70
2023-04-21T12:19:39.688Z,8.43
2023-04-21T12:22:11.783Z,9.80
2023-04-21T12:24:39.971Z,11.43
2023-04-21T12:27:08.523Z,11.52
2023-04-21T12:29:37.491Z,9.18
2023-04-21T12:32:06.474Z,12.25
2023-04-21T12:34:34.865Z,11.03
2023-04-21T12:37:02.954Z,11.27
2023-04-21T12:39:31.539Z,12.63
2023-04-21T12:41:59.900Z,9.13
2023-04-21T12:44:27.478Z,10.65
2023-04-21T12:46:54.989Z,11.90
2023-04-21T12:49:22.752Z,10.02
2023-04-21T12:51:50.224Z,10.00
2023-04-21T12:54:17.735Z,11.57
2023-04-21T12:56:45.955Z,10.93
2023-04-21T12:59:13.631Z,9.75
2023-04-21T13:01:42.701Z,11.55
2023-04-21T13:04:10.658Z,11.70
2023-04-21T13:06:39.238Z,9.00
2023-04-21T13:09:06.848Z,9.10
2023-04-21T13:11:34.721Z,8.85
2023-04-21T13:14:04.126Z,9.98
2023-04-21T13:16:32.659Z,9.33
2023-04-21T13:19:00.340Z,10.27
2023-04-21T13:21:27.984Z,9.75
2023-04-21T13:23:56.245Z,9.18
2023-04-21T13:26:24.489Z,10.50
2023-04-21T13:28:51.864Z,10.80
2023-04-21T13:31:19.499Z,9.98
2023-04-21T13:33:47.210Z,9.77
2023-04-21T13:36:14.821Z,9.98
2023-04-21T13:38:42.417Z,10.25
2023-04-21T13:41:10.135Z,10.85
2023-04-21T13:43:37.637Z,11.38
2023-04-21T13:46:05.557Z,9.95
2023-04-21T13:48:33.464Z,10.13
2023-04-21T13:51:00.933Z,13.67
2023-04-21T13:53:28.505Z,10.17
2023-04-21T13:55:57.538Z,10.23
2023-04-21T13:58:25.394Z,9.68
2023-04-21T14:00:52.799Z,10.38
2023-04-21T14:03:20.967Z,10.88
2023-04-21T14:05:48.577Z,10.05
2023-04-21T14:08:16.066Z,9.15
2023-04-21T14:10:43.854Z,9.77
2023-04-21T14:13:17.422Z,9.27
2023-04-21T14:15:56.135Z,10.75
2023-04-21T14:18:24.019Z,11.70
2023-04-21T14:20:51.472Z,8.83
2023-04-21T14:23:19.202Z,11.98
2023-04-21T14:25:46.598Z,8.98
2023-04-21T14:28:14.710Z,9.18
2023-04-21T14:30:43.232Z,8.90
2023-04-21T14:33:10.952Z,7.93
2023-04-21T14:35:38.464Z,12.55
2023-04-21T14:38:06.206Z,10.30
2023-04-21T14:40:33.880Z,9.73
2023-04-21T14:43:01.268Z,12.82
2023-04-21T14:45:29.046Z,10.98
2023-04-21T14:47:56.531Z,12.80
2023-04-21T14:50:23.961Z,10.65
2023-04-21T14:52:51.679Z,10.27
2023-04-21T14:55:19.182Z,8.88
2023-04-21T14:57:47.130Z,9.10
2023-04-21T15:00:15.063Z,11.88
2023-04-21T15:02:43.234Z,10.20
2023-04-21T15:05:11.313Z,11.38
2023-04-21T15:07:40.524Z,10.13
2023-04-21T15:10:08.821Z,8.90
2023-04-21T15:12:36.805Z,9.10
2023-04-21T15:15:05.906Z,8.95
2023-04-21T15:17:34.178Z,9.45
2023-04-21T15:20:01.589Z,10.30
2023-04-21T15:22:30.402Z,9.57
2023-04-21T15:24:57.918Z,10.57
2023-04-21T15:27:25.389Z,9.00
2023-04-21T15:29:53.091Z,9.60
2023-04-21T15:32:20.595Z,9.88
2023-04-21T15:34:49.088Z,9.73
2023-04-21T15:37:17.760Z,8.98
2023-04-21T15:39:45.169Z,10.60
2023-04-21T15:42:12.693Z,8.73
2023-04-21T15:44:40.451Z,9.73
2023-04-21T15:47:07.964Z,10.68
2023-04-21T15:49:35.612Z,10.32
2023-04-21T15:52:04.951Z,11.35
2023-04-21T15:54:34.237Z,12.10
2023-04-21T15:57:05.563Z,7.45
2023-04-21T15:59:33.267Z,11.23
2023-04-21T16:02:00.799Z,8.97
2023-04-21T16:04:28.736Z,9.07
2023-04-21T16:06:56.533Z,8.60
2023-04-21T16:09:24.135Z,10.50
2023-04-21T16:11:52.056Z,9.63
2023-04-21T16:14:19.542Z,10.70
2023-04-21T16:16:46.949Z,9.93
2023-04-21T16:19:14.717Z,11.07
2023-04-21T16:21:42.685Z,9.13
2023-04-21T16:24:10.322Z,10.15
2023-04-21T16:26:38.205Z,8.20
2023-04-21T16:29:05.782Z,7.43
2023-04-21T16:31:33.361Z,9.85
2023-04-21T16:34:01.300Z,8.87
2023-04-21T16:36:28.868Z,10.75
2023-04-21T16:38:56.427Z,9.25
2023-04-21T16:41:24.441Z,10.50
2023-04-21T16:43:51.892Z,7.97
2023-04-21T16:46:19.359Z,12.40
2023-04-21T16:48:47.387Z,14.37
2023-04-21T16:51:14.977Z,10.93
2023-04-21T16:53:42.606Z,13.87
2023-04-21T16:56:10.239Z,10.55
2023-04-21T16:58:37.970Z,10.17
2023-04-21T17:01:07.683Z,10.70
2023-04-21T17:03:35.716Z,12.30
2023-04-21T17:06:05.008Z,10.40
2023-04-21T17:08:33.006Z,9.48
2023-04-21T17:11:00.726Z,16.57
2023-04-21T17:13:28.403Z,16.60
2023-04-21T17:15:56.137Z,10.32
2023-04-21T17:18:23.793Z,12.60
2023-04-21T17:20:51.196Z,12.60
2023-04-21T17:23:18.553Z,12.60
2023-04-21T17:25:46.403Z,12.55
2023-04-21T17:28:15.334Z,13.75
2023-04-21T17:30:42.786Z,12.00
2023-04-21T17:35:55.857Z,15.18
2023-04-21T17:38:29.739Z,15.23
2023-04-21T17:40:57.177Z,12.90
2023-04-21T17:43:24.631Z,13.93
2023-04-21T17:45:53.104Z,16.58
2023-04-21T17:48:21.254Z,17.08
2023-04-21T17:50:48.636Z,16.00
2023-04-21T17:53:17.420Z,17.70
2023-04-21T17:55:44.989Z,19.42
2023-04-21T17:58:12.764Z,14.60
2023-04-21T18:00:40.996Z,14.63
2023-04-21T18:03:08.884Z,14.87
2023-04-21T18:05:36.564Z,16.42
2023-04-21T18:08:04.210Z,15.43
2023-04-21T18:10:31.896Z,19.35
2023-04-21T18:12:59.599Z,15.25
2023-04-21T18:15:27.066Z,23.67
2023-04-21T18:17:55.109Z,21.57
2023-04-21T18:20:22.510Z,15.87
2023-04-21T18:22:51.770Z,17.12
2023-04-21T18:25:34.051Z,18.03
2023-04-21T18:28:08.214Z,19.98
2023-04-21T18:30:36.129Z,21.33
2023-04-21T18:33:03.972Z,20.65
2023-04-21T18:35:34.466Z,19.75
2023-04-21T18:38:02.558Z,18.75
2023-04-21T18:40:30.824Z,22.45
2023-04-21T18:42:58.581Z,23.02
2023-04-21T18:45:27.704Z,24.95
2023-04-21T18:47:55.806Z,24.25
2023-04-21T18:50:23.470Z,25.67
2023-04-21T18:52:52.219Z,23.42
2023-04-21T18:55:20.458Z,26.70
2023-04-21T18:57:48.309Z,25.23
2023-04-21T19:00:16.377Z,24.40
2023-04-21T19:02:48.848Z,27.92
2023-04-21T19:05:17.522Z,29.27
2023-04-21T19:07:45.182Z,27.83
2023-04-21T19:10:14.803Z,25.60
2023-04-21T19:12:42.839Z,21.73
2023-04-21T19:15:10.557Z,22.85
2023-04-21T19:17:40.158Z,19.17
2023-04-21T19:20:08.685Z,17.53
2023-04-21T19:22:36.436Z,17.25
2023-04-21T19:25:04.224Z,16.05
2023-04-21T19:27:33.182Z,15.65
2023-04-21T19:30:01.407Z,19.60
2023-04-21T19:32:29.361Z,24.08
2023-04-21T19:34:59.311Z,24.08
2023-04-21T19:37:28.627Z,26.45
2023-04-21T19:39:57.492Z,27.95
2023-04-21T19:42:25.670Z,26.95
2023-04-21T19:44:53.628Z,27.05
2023-04-21T19:47:21.375Z,27.13
2023-04-21T19:49:49.880Z,22.42
2023-04-21T19:52:17.537Z,18.55
2023-04-21T19:54:45.715Z,21.37
2023-04-21T19:57:17.936Z,16.58
2023-04-21T19:59:45.568Z,18.35
2023-04-21T20:02:14.037Z,17.57
2023-04-21T20:04:45.448Z,22.13
2023-04-21T20:07:13.228Z,16.77
2023-04-21T20:09:41.136Z,19.02
2023-04-21T20:12:10.475Z,21.13
2023-04-21T20:14:39.044Z,19.17
2023-04-21T20:17:06.633Z,16.35
2023-04-21T20:19:35.875Z,17.15
2023-04-21T20:22:03.965Z,17.67
2023-04-21T20:24:31.832Z,16.15
2023-04-21T20:26:59.882Z,17.62
2023-04-21T20:29:27.483Z,19.33
2023-04-21T20:31:54.976Z,21.92
2023-04-21T20:34:22.770Z,25.10
2023-04-21T20:36:51.713Z,23.00
2023-04-21T20:39:19.169Z,21.45
2023-04-21T20:41:51.038Z,18.73
2023-04-21T20:44:31.184Z,22.83
2023-04-21T20:47:00.782Z,18.00
2023-04-21T20:49:28.492Z,14.95
2023-04-21T20:51:57.836Z,14.52
2023-04-21T20:54:25.919Z,15.80
2023-04-21T20:56:53.704Z,13.88
2023-04-21T20:59:21.235Z,13.20
2023-04-21T21:01:48.941Z,11.18
2023-04-21T21:04:16.458Z,14.60
2023-04-21T21:06:43.977Z,15.30
2023-04-21T21:09:11.802Z,15.65
2023-04-21T21:11:39.176Z,15.57
2023-04-21T21:14:06.581Z,16.47
2023-04-21T21:16:34.377Z,13.02
2023-04-21T21:19:01.767Z,14.98
2023-04-21T21:21:29.115Z,14.67
2023-04-21T21:23:59.184Z,13.82
2023-04-21T21:26:27.023Z,13.05
2023-04-21T21:28:54.382Z,13.40
2023-04-21T21:31:22.098Z,12.55
2023-04-21T21:33:49.564Z,12.85
2023-04-21T21:36:17.101Z,12.15
2023-04-21T21:38:44.910Z,14.27
2023-04-21T21:41:14.010Z,12.90
2023-04-21T21:43:41.418Z,11.32
2023-04-21T21:46:09.166Z,13.15
2023-04-21T21:48:36.603Z,12.80
2023-04-21T21:51:05.694Z,11.40
